Stoddard, Wisconsin
Current Conditions -  °F | °C
As of 6:53 PM on Wednesday 26 Nov 2014 (Local Time) from KLSE Reporting Station
Light Snow Light Snow  
Wind Chill: 17°   Ceiling: 3900
Heat Index: 25°   Visibility: 4mi
Dew Point: 22°   Wind: 7mph
Humidity: 88%   Direction: 340°NNW
Pressure: 30.24"   Gusts: NA
Location:  43.66°N, 91.22°W
Report Text: KLSE 270053Z 34006KT 4SM -SN BR OVC039 M04/M06 A3024 RMK AO2 SLP259 P0001 T10391056
Loading
Personal Weather Stations






























Interactive Weather Map New forecast layout! Learn more

10-Day Weather Forecast

Advertisements
Track Severe Weather on mobile